sensor_id;sensor_type;location;lat;lon;timestamp;pressure;altitude;pressure_sealevel;temperature;humidity
55347;BME280;41218;55.700;38.270;2023-02-02T00:04:38;98880.84;;;-0.70;71.67
55347;BME280;41218;55.700;38.270;2023-02-02T00:09:38;98895.06;;;-0.65;71.78
55347;BME280;41218;55.700;38.270;2023-02-02T00:14:39;98897.44;;;-0.63;71.70
55347;BME280;41218;55.700;38.270;2023-02-02T00:19:39;98892.19;;;-0.68;71.61
55347;BME280;41218;55.700;38.270;2023-02-02T00:24:40;98885.97;;;-0.69;71.59
55347;BME280;41218;55.700;38.270;2023-02-02T00:29:40;98884.34;;;-0.70;71.54
55347;BME280;41218;55.700;38.270;2023-02-02T00:34:41;98874.44;;;-0.74;71.67
55347;BME280;41218;55.700;38.270;2023-02-02T00:39:41;98878.25;;;-0.75;71.84
55347;BME280;41218;55.700;38.270;2023-02-02T00:44:42;98887.38;;;-0.71;71.95
55347;BME280;41218;55.700;38.270;2023-02-02T00:50:01;98884.66;;;-0.71;71.65
55347;BME280;41218;55.700;38.270;2023-02-02T00:55:01;98881.63;;;-0.70;71.94
55347;BME280;41218;55.700;38.270;2023-02-02T01:00:04;98874.16;;;-0.73;71.73
55347;BME280;41218;55.700;38.270;2023-02-02T01:05:06;98888.34;;;-0.67;71.67
55347;BME280;41218;55.700;38.270;2023-02-02T01:10:10;98890.56;;;-0.69;71.65
55347;BME280;41218;55.700;38.270;2023-02-02T01:15:12;98882.44;;;-0.69;71.81
55347;BME280;41218;55.700;38.270;2023-02-02T01:20:18;98880.84;;;-0.70;71.95
55347;BME280;41218;55.700;38.270;2023-02-02T01:25:19;98868.25;;;-0.75;71.84
55347;BME280;41218;55.700;38.270;2023-02-02T01:30:20;98876.69;;;-0.68;71.92
55347;BME280;41218;55.700;38.270;2023-02-02T01:35:20;98870.47;;;-0.77;71.83
55347;BME280;41218;55.700;38.270;2023-02-02T01:40:21;98866.31;;;-0.74;72.11
55347;BME280;41218;55.700;38.270;2023-02-02T01:45:27;98873.81;;;-0.71;71.89
55347;BME280;41218;55.700;38.270;2023-02-02T01:50:31;98861.84;;;-0.70;71.88
55347;BME280;41218;55.700;38.270;2023-02-02T01:55:34;98866.00;;;-0.73;71.83
55347;BME280;41218;55.700;38.270;2023-02-02T02:00:38;98857.81;;;-0.82;71.88
55347;BME280;41218;55.700;38.270;2023-02-02T02:05:44;98853.53;;;-0.83;71.65
55347;BME280;41218;55.700;38.270;2023-02-02T02:10:46;98867.41;;;-0.75;72.10
55347;BME280;41218;55.700;38.270;2023-02-02T02:16:00;98880.06;;;-0.71;71.83
55347;BME280;41218;55.700;38.270;2023-02-02T02:21:43;98880.19;;;-0.67;71.85
55347;BME280;41218;55.700;38.270;2023-02-02T02:32:48;98874.94;;;-0.72;71.82
55347;BME280;41218;55.700;38.270;2023-02-02T02:37:59;98869.34;;;-0.76;71.57
55347;BME280;41218;55.700;38.270;2023-02-02T02:43:20;98875.06;;;-0.77;71.93
55347;BME280;41218;55.700;38.270;2023-02-02T02:48:23;98880.50;;;-0.77;71.75
55347;BME280;41218;55.700;38.270;2023-02-02T02:53:23;98877.94;;;-0.83;71.77
55347;BME280;41218;55.700;38.270;2023-02-02T03:04:19;98895.81;;;-0.82;71.45
55347;BME280;41218;55.700;38.270;2023-02-02T03:09:25;98892.94;;;-0.85;71.52
55347;BME280;41218;55.700;38.270;2023-02-02T03:14:34;98899.66;;;-0.83;71.49
55347;BME280;41218;55.700;38.270;2023-02-02T03:19:35;98893.75;;;-0.85;71.68
55347;BME280;41218;55.700;38.270;2023-02-02T03:24:35;98900.75;;;-0.84;71.69
55347;BME280;41218;55.700;38.270;2023-02-02T03:29:35;98891.47;;;-0.91;71.69
55347;BME280;41218;55.700;38.270;2023-02-02T03:34:36;98905.69;;;-0.86;71.73
55347;BME280;41218;55.700;38.270;2023-02-02T03:39:36;98898.03;;;-0.92;71.60
55347;BME280;41218;55.700;38.270;2023-02-02T03:44:37;98914.16;;;-0.87;71.73
55347;BME280;41218;55.700;38.270;2023-02-02T03:49:37;98908.56;;;-0.91;71.91
55347;BME280;41218;55.700;38.270;2023-02-02T03:54:38;98906.66;;;-0.90;71.81
55347;BME280;41218;55.700;38.270;2023-02-02T03:59:39;98907.13;;;-0.88;71.67
55347;BME280;41218;55.700;38.270;2023-02-02T04:04:39;98907.63;;;-0.86;71.60
55347;BME280;41218;55.700;38.270;2023-02-02T04:09:40;98921.34;;;-0.83;71.45
55347;BME280;41218;55.700;38.270;2023-02-02T04:14:40;98918.47;;;-0.86;71.56
55347;BME280;41218;55.700;38.270;2023-02-02T04:19:41;98891.75;;;-1.02;71.47
55347;BME280;41218;55.700;38.270;2023-02-02T04:24:41;98904.22;;;-1.01;71.65
55347;BME280;41218;55.700;38.270;2023-02-02T04:29:42;98916.53;;;-0.94;71.75
55347;BME280;41218;55.700;38.270;2023-02-02T04:34:42;98910.63;;;-0.96;71.38
55347;BME280;41218;55.700;38.270;2023-02-02T04:39:43;98923.38;;;-0.97;71.32
55347;BME280;41218;55.700;38.270;2023-02-02T04:44:43;98924.66;;;-0.94;71.46
55347;BME280;41218;55.700;38.270;2023-02-02T04:49:45;98922.41;;;-1.01;71.24
55347;BME280;41218;55.700;38.270;2023-02-02T04:54:45;98923.66;;;-1.07;71.43
55347;BME280;41218;55.700;38.270;2023-02-02T04:59:46;98911.19;;;-1.17;71.40
55347;BME280;41218;55.700;38.270;2023-02-02T05:04:46;98927.00;;;-1.10;71.45
55347;BME280;41218;55.700;38.270;2023-02-02T05:09:47;98915.47;;;-1.16;71.29
55347;BME280;41218;55.700;38.270;2023-02-02T05:14:47;98930.19;;;-1.08;71.57
55347;BME280;41218;55.700;38.270;2023-02-02T05:19:48;98942.00;;;-1.04;71.36
55347;BME280;41218;55.700;38.270;2023-02-02T05:24:48;98922.50;;;-1.15;71.53
55347;BME280;41218;55.700;38.270;2023-02-02T05:29:49;98929.97;;;-1.21;71.24
55347;BME280;41218;55.700;38.270;2023-02-02T05:34:49;98929.19;;;-1.21;71.62
55347;BME280;41218;55.700;38.270;2023-02-02T05:39:50;98938.97;;;-1.11;71.47
55347;BME280;41218;55.700;38.270;2023-02-02T05:44:52;98949.66;;;-1.06;71.37
55347;BME280;41218;55.700;38.270;2023-02-02T05:50:11;98935.28;;;-1.15;71.48
55347;BME280;41218;55.700;38.270;2023-02-02T05:55:46;98949.97;;;-1.08;71.29
55347;BME280;41218;55.700;38.270;2023-02-02T06:00:58;98939.09;;;-1.16;71.57
55347;BME280;41218;55.700;38.270;2023-02-02T06:06:20;98958.25;;;-1.13;71.33
55347;BME280;41218;55.700;38.270;2023-02-02T06:11:26;98944.81;;;-1.18;71.44
55347;BME280;41218;55.700;38.270;2023-02-02T06:16:27;98965.63;;;-1.05;71.66
55347;BME280;41218;55.700;38.270;2023-02-02T06:21:28;98968.16;;;-1.08;71.56
55347;BME280;41218;55.700;38.270;2023-02-02T06:26:30;98973.94;;;-1.01;71.73
55347;BME280;41218;55.700;38.270;2023-02-02T06:31:31;98970.59;;;-0.98;71.52
55347;BME280;41218;55.700;38.270;2023-02-02T06:36:33;98968.69;;;-0.97;71.34
55347;BME280;41218;55.700;38.270;2023-02-02T06:41:34;98987.53;;;-0.92;71.30
55347;BME280;41218;55.700;38.270;2023-02-02T06:46:34;98976.81;;;-0.97;71.12
55347;BME280;41218;55.700;38.270;2023-02-02T06:51:35;98985.19;;;-0.85;71.52
55347;BME280;41218;55.700;38.270;2023-02-02T06:56:35;98966.78;;;-0.97;71.35
55347;BME280;41218;55.700;38.270;2023-02-02T07:01:36;98984.44;;;-0.77;71.38
55347;BME280;41218;55.700;38.270;2023-02-02T07:06:37;98976.13;;;-0.81;71.15
55347;BME280;41218;55.700;38.270;2023-02-02T07:11:39;98964.78;;;-0.83;71.09
55347;BME280;41218;55.700;38.270;2023-02-02T07:16:39;98980.94;;;-0.69;71.11
55347;BME280;41218;55.700;38.270;2023-02-02T07:21:40;98969.13;;;-0.73;71.15
55347;BME280;41218;55.700;38.270;2023-02-02T07:26:40;98959.84;;;-0.81;70.77
55347;BME280;41218;55.700;38.270;2023-02-02T07:31:41;98983.34;;;-0.67;70.99
55347;BME280;41218;55.700;38.270;2023-02-02T07:36:41;98969.94;;;-0.64;70.79
55347;BME280;41218;55.700;38.270;2023-02-02T07:41:42;98965.16;;;-0.67;70.86
55347;BME280;41218;55.700;38.270;2023-02-02T07:46:43;98987.56;;;-0.52;70.76
55347;BME280;41218;55.700;38.270;2023-02-02T07:51:44;98996.03;;;-0.45;70.82
55347;BME280;41218;55.700;38.270;2023-02-02T07:56:47;98992.34;;;-0.49;70.50
55347;BME280;41218;55.700;38.270;2023-02-02T08:01:47;98997.31;;;-0.43;70.82
55347;BME280;41218;55.700;38.270;2023-02-02T08:06:48;98980.38;;;-0.48;70.82
55347;BME280;41218;55.700;38.270;2023-02-02T08:11:48;99003.88;;;-0.35;70.73
55347;BME280;41218;55.700;38.270;2023-02-02T08:16:49;98985.50;;;-0.38;70.51
55347;BME280;41218;55.700;38.270;2023-02-02T08:21:50;99001.81;;;-0.29;70.69
55347;BME280;41218;55.700;38.270;2023-02-02T08:26:53;98976.09;;;-0.41;70.74
55347;BME280;41218;55.700;38.270;2023-02-02T08:31:54;98998.50;;;-0.17;70.72
55347;BME280;41218;55.700;38.270;2023-02-02T08:36:54;98983.78;;;-0.16;70.77
55347;BME280;41218;55.700;38.270;2023-02-02T08:41:55;98990.03;;;-0.07;70.87
55347;BME280;41218;55.700;38.270;2023-02-02T08:46:56;98959.81;;;-0.23;70.53
55347;BME280;41218;55.700;38.270;2023-02-02T08:51:56;98988.41;;;-0.08;70.46
55347;BME280;41218;55.700;38.270;2023-02-02T08:56:57;98989.06;;;-0.03;70.30
55347;BME280;41218;55.700;38.270;2023-02-02T09:01:57;98994.06;;;0.04;70.32
55347;BME280;41218;55.700;38.270;2023-02-02T09:06:58;98999.16;;;0.06;70.13
55347;BME280;41218;55.700;38.270;2023-02-02T09:12:00;98992.94;;;0.05;70.09
55347;BME280;41218;55.700;38.270;2023-02-02T09:17:01;98991.81;;;0.15;70.29
55347;BME280;41218;55.700;38.270;2023-02-02T09:22:02;98970.41;;;0.05;70.21
55347;BME280;41218;55.700;38.270;2023-02-02T09:27:02;98964.31;;;0.08;70.03
55347;BME280;41218;55.700;38.270;2023-02-02T09:32:03;98965.63;;;0.10;69.99
55347;BME280;41218;55.700;38.270;2023-02-02T09:37:04;98955.69;;;0.14;70.01
55347;BME280;41218;55.700;38.270;2023-02-02T09:47:55;98983.19;;;0.39;69.30
55347;BME280;41218;55.700;38.270;2023-02-02T09:53:03;98973.13;;;0.31;69.34
55347;BME280;41218;55.700;38.270;2023-02-02T10:03:23;98966.41;;;0.19;69.00
55347;BME280;41218;55.700;38.270;2023-02-02T10:08:33;98976.31;;;0.24;69.31
55347;BME280;41218;55.700;38.270;2023-02-02T10:13:37;98967.19;;;0.20;69.21
55347;BME280;41218;55.700;38.270;2023-02-02T10:23:55;98966.53;;;0.40;69.43
55347;BME280;41218;55.700;38.270;2023-02-02T10:34:21;98972.59;;;0.64;68.88
55347;BME280;41218;55.700;38.270;2023-02-02T10:44:42;98954.81;;;0.66;68.71
55347;BME280;41218;55.700;38.270;2023-02-02T10:49:53;98958.81;;;0.69;68.08
55347;BME280;41218;55.700;38.270;2023-02-02T11:00:23;98959.47;;;0.66;68.01
55347;BME280;41218;55.700;38.270;2023-02-02T11:05:27;98949.72;;;0.56;68.17
55347;BME280;41218;55.700;38.270;2023-02-02T11:10:49;98966.84;;;0.65;68.28
55347;BME280;41218;55.700;38.270;2023-02-02T11:21:33;98960.28;;;0.66;67.35
55347;BME280;41218;55.700;38.270;2023-02-02T11:26:44;98967.78;;;0.69;67.55
55347;BME280;41218;55.700;38.270;2023-02-02T11:31:46;98964.13;;;0.65;68.17
55347;BME280;41218;55.700;38.270;2023-02-02T11:37:50;98969.09;;;0.63;66.95
55347;BME280;41218;55.700;38.270;2023-02-02T11:42:19;98971.34;;;0.61;67.51
55347;BME280;41218;55.700;38.270;2023-02-02T11:52:27;98987.97;;;0.59;67.65
55347;BME280;41218;55.700;38.270;2023-02-02T11:57:29;98996.28;;;0.63;67.66
55347;BME280;41218;55.700;38.270;2023-02-02T12:02:31;98988.75;;;0.60;68.24
55347;BME280;41218;55.700;38.270;2023-02-02T12:07:32;98991.31;;;0.65;67.50
55347;BME280;41218;55.700;38.270;2023-02-02T12:18:09;98991.78;;;0.58;67.33
55347;BME280;41218;55.700;38.270;2023-02-02T12:50:36;99006.38;;;0.28;67.36
55347;BME280;41218;55.700;38.270;2023-02-02T13:12:04;99024.25;;;0.20;67.19
55347;BME280;41218;55.700;38.270;2023-02-02T13:17:12;99013.72;;;0.18;67.25
55347;BME280;41218;55.700;38.270;2023-02-02T13:22:21;99023.47;;;0.19;67.62
55347;BME280;41218;55.700;38.270;2023-02-02T13:27:24;99007.78;;;0.08;67.31
55347;BME280;41218;55.700;38.270;2023-02-02T13:37:38;99018.81;;;0.11;67.31
55347;BME280;41218;55.700;38.270;2023-02-02T14:04:28;98990.66;;;-0.19;67.72
55347;BME280;41218;55.700;38.270;2023-02-02T14:09:32;99005.38;;;-0.20;68.04
55347;BME280;41218;55.700;38.270;2023-02-02T14:14:36;99008.88;;;-0.28;67.95
55347;BME280;41218;55.700;38.270;2023-02-02T14:24:45;99027.38;;;-0.30;68.17
55347;BME280;41218;55.700;38.270;2023-02-02T14:34:47;99044.00;;;-0.32;68.25
55347;BME280;41218;55.700;38.270;2023-02-02T14:50:26;99044.94;;;-0.36;68.41
55347;BME280;41218;55.700;38.270;2023-02-02T14:55:30;99043.81;;;-0.35;68.23
55347;BME280;41218;55.700;38.270;2023-02-02T15:00:32;99051.78;;;-0.39;68.15
55347;BME280;41218;55.700;38.270;2023-02-02T15:05:34;99056.59;;;-0.36;68.36
55347;BME280;41218;55.700;38.270;2023-02-02T15:16:06;99078.50;;;-0.32;68.64
55347;BME280;41218;55.700;38.270;2023-02-02T15:21:16;99079.13;;;-0.35;68.30
55347;BME280;41218;55.700;38.270;2023-02-02T15:26:28;99079.41;;;-0.37;68.64
55347;BME280;41218;55.700;38.270;2023-02-02T15:31:45;99079.75;;;-0.38;68.65
55347;BME280;41218;55.700;38.270;2023-02-02T15:36:55;99075.53;;;-0.45;68.42
55347;BME280;41218;55.700;38.270;2023-02-02T15:42:00;99066.59;;;-0.45;68.59
55347;BME280;41218;55.700;38.270;2023-02-02T15:47:34;99080.38;;;-0.42;68.72
55347;BME280;41218;55.700;38.270;2023-02-02T15:52:44;99074.41;;;-0.52;68.48
55347;BME280;41218;55.700;38.270;2023-02-02T15:57:46;99072.31;;;-0.55;68.74
55347;BME280;41218;55.700;38.270;2023-02-02T16:02:58;99071.03;;;-0.58;68.80
55347;BME280;41218;55.700;38.270;2023-02-02T16:08:01;99093.56;;;-0.49;68.71
55347;BME280;41218;55.700;38.270;2023-02-02T16:13:02;99082.69;;;-0.57;68.60
55347;BME280;41218;55.700;38.270;2023-02-02T16:18:05;99099.94;;;-0.53;68.42
55347;BME280;41218;55.700;38.270;2023-02-02T16:23:14;99099.75;;;-0.57;68.86
55347;BME280;41218;55.700;38.270;2023-02-02T16:28:20;99107.13;;;-0.57;68.90
55347;BME280;41218;55.700;38.270;2023-02-02T16:33:27;99116.25;;;-0.53;69.00
55347;BME280;41218;55.700;38.270;2023-02-02T16:38:35;99123.88;;;-0.55;68.82
55347;BME280;41218;55.700;38.270;2023-02-02T16:43:40;99123.41;;;-0.57;68.86
55347;BME280;41218;55.700;38.270;2023-02-02T16:48:55;99127.84;;;-0.62;68.78
55347;BME280;41218;55.700;38.270;2023-02-02T16:59:33;99125.22;;;-0.75;68.89
55347;BME280;41218;55.700;38.270;2023-02-02T17:04:35;99115.59;;;-0.82;68.54
55347;BME280;41218;55.700;38.270;2023-02-02T17:09:39;99125.53;;;-0.77;69.04
55347;BME280;41218;55.700;38.270;2023-02-02T17:14:52;99133.53;;;-0.72;69.17
55347;BME280;41218;55.700;38.270;2023-02-02T17:19:53;99148.22;;;-0.73;69.18
55347;BME280;41218;55.700;38.270;2023-02-02T17:24:53;99128.38;;;-0.82;69.22
55347;BME280;41218;55.700;38.270;2023-02-02T17:29:55;99126.09;;;-0.89;69.17
55347;BME280;41218;55.700;38.270;2023-02-02T17:34:56;99159.41;;;-0.74;69.36
55347;BME280;41218;55.700;38.270;2023-02-02T17:39:56;99137.16;;;-0.85;68.99
55347;BME280;41218;55.700;38.270;2023-02-02T17:44:57;99164.31;;;-0.76;69.28
55347;BME280;41218;55.700;38.270;2023-02-02T17:49:57;99124.91;;;-0.96;69.17
55347;BME280;41218;55.700;38.270;2023-02-02T17:54:58;99165.63;;;-0.74;69.29
55347;BME280;41218;55.700;38.270;2023-02-02T17:59:59;99158.22;;;-0.82;69.16
55347;BME280;41218;55.700;38.270;2023-02-02T18:05:00;99157.78;;;-0.75;69.38
55347;BME280;41218;55.700;38.270;2023-02-02T18:10:01;99162.41;;;-0.76;69.00
55347;BME280;41218;55.700;38.270;2023-02-02T18:15:04;99151.69;;;-0.81;69.08
55347;BME280;41218;55.700;38.270;2023-02-02T18:20:13;99160.69;;;-0.72;68.95
55347;BME280;41218;55.700;38.270;2023-02-02T18:25:16;99152.34;;;-0.75;69.44
55347;BME280;41218;55.700;38.270;2023-02-02T18:30:16;99147.56;;;-0.78;69.30
55347;BME280;41218;55.700;38.270;2023-02-02T18:35:17;99126.41;;;-0.90;69.20
55347;BME280;41218;55.700;38.270;2023-02-02T18:40:18;99123.69;;;-0.90;68.98
55347;BME280;41218;55.700;38.270;2023-02-02T18:45:18;99141.34;;;-0.79;69.04
55347;BME280;41218;55.700;38.270;2023-02-02T18:50:19;99136.81;;;-0.84;69.51
55347;BME280;41218;55.700;38.270;2023-02-02T18:55:21;99166.59;;;-0.70;69.49
55347;BME280;41218;55.700;38.270;2023-02-02T19:00:40;99144.91;;;-0.92;69.34
55347;BME280;41218;55.700;38.270;2023-02-02T19:05:41;99147.31;;;-0.91;69.34
55347;BME280;41218;55.700;38.270;2023-02-02T19:11:08;99146.00;;;-0.93;69.37
55347;BME280;41218;55.700;38.270;2023-02-02T19:16:16;99147.91;;;-0.94;69.42
55347;BME280;41218;55.700;38.270;2023-02-02T19:21:21;99154.13;;;-0.93;69.82
55347;BME280;41218;55.700;38.270;2023-02-02T19:26:23;99168.88;;;-0.86;69.45
55347;BME280;41218;55.700;38.270;2023-02-02T19:31:24;99194.19;;;-0.76;69.43
55347;BME280;41218;55.700;38.270;2023-02-02T19:36:25;99169.88;;;-0.82;69.80
55347;BME280;41218;55.700;38.270;2023-02-02T19:41:30;99154.94;;;-0.93;69.40
55347;BME280;41218;55.700;38.270;2023-02-02T19:46:35;99161.38;;;-0.89;69.59
55347;BME280;41218;55.700;38.270;2023-02-02T19:51:51;99173.06;;;-0.79;69.65
55347;BME280;41218;55.700;38.270;2023-02-02T20:07:33;99174.50;;;-0.82;69.81
55347;BME280;41218;55.700;38.270;2023-02-02T20:12:34;99171.78;;;-0.82;69.52
55347;BME280;41218;55.700;38.270;2023-02-02T20:17:35;99169.22;;;-0.87;69.61
55347;BME280;41218;55.700;38.270;2023-02-02T20:22:36;99186.84;;;-0.76;69.69
55347;BME280;41218;55.700;38.270;2023-02-02T20:27:37;99167.28;;;-0.87;69.53
55347;BME280;41218;55.700;38.270;2023-02-02T20:32:40;99179.44;;;-0.84;69.74
55347;BME280;41218;55.700;38.270;2023-02-02T20:37:41;99185.34;;;-0.82;69.87
55347;BME280;41218;55.700;38.270;2023-02-02T20:42:42;99189.69;;;-0.81;69.58
55347;BME280;41218;55.700;38.270;2023-02-02T20:47:44;99199.59;;;-0.76;69.81
55347;BME280;41218;55.700;38.270;2023-02-02T20:52:45;99176.53;;;-0.88;69.89
55347;BME280;41218;55.700;38.270;2023-02-02T20:57:45;99169.63;;;-0.94;69.57
55347;BME280;41218;55.700;38.270;2023-02-02T21:02:46;99152.28;;;-1.07;69.85
55347;BME280;41218;55.700;38.270;2023-02-02T21:07:47;99186.63;;;-0.79;69.74
55347;BME280;41218;55.700;38.270;2023-02-02T21:12:53;99172.97;;;-0.97;69.58
55347;BME280;41218;55.700;38.270;2023-02-02T21:17:54;99156.91;;;-1.07;70.03
55347;BME280;41218;55.700;38.270;2023-02-02T21:22:54;99177.16;;;-0.91;70.09
55347;BME280;41218;55.700;38.270;2023-02-02T21:27:56;99189.84;;;-0.77;69.98
55347;BME280;41218;55.700;38.270;2023-02-02T21:32:58;99172.81;;;-0.92;69.91
55347;BME280;41218;55.700;38.270;2023-02-02T21:38:05;99177.75;;;-0.94;69.87
55347;BME280;41218;55.700;38.270;2023-02-02T21:43:17;99169.63;;;-0.94;69.84
55347;BME280;41218;55.700;38.270;2023-02-02T21:53:20;99194.91;;;-0.85;69.94
55347;BME280;41218;55.700;38.270;2023-02-02T21:58:29;99186.88;;;-0.90;70.16
55347;BME280;41218;55.700;38.270;2023-02-02T22:03:34;99175.97;;;-0.98;70.04
55347;BME280;41218;55.700;38.270;2023-02-02T22:08:36;99178.53;;;-0.93;70.24
55347;BME280;41218;55.700;38.270;2023-02-02T22:13:36;99190.59;;;-0.86;70.00
55347;BME280;41218;55.700;38.270;2023-02-02T22:18:37;99170.25;;;-0.97;70.36
55347;BME280;41218;55.700;38.270;2023-02-02T22:23:37;99181.75;;;-0.91;70.35
55347;BME280;41218;55.700;38.270;2023-02-02T22:28:38;99176.16;;;-0.95;70.32
55347;BME280;41218;55.700;38.270;2023-02-02T22:33:39;99175.97;;;-0.98;70.46
55347;BME280;41218;55.700;38.270;2023-02-02T22:38:40;99174.06;;;-0.98;70.30
55347;BME280;41218;55.700;38.270;2023-02-02T22:43:40;99169.41;;;-0.97;70.36
55347;BME280;41218;55.700;38.270;2023-02-02T22:48:41;99197.31;;;-0.83;70.42
55347;BME280;41218;55.700;38.270;2023-02-02T22:53:41;99183.38;;;-0.90;70.26
55347;BME280;41218;55.700;38.270;2023-02-02T22:58:42;99189.00;;;-0.87;70.34
55347;BME280;41218;55.700;38.270;2023-02-02T23:03:42;99187.69;;;-0.89;70.48
55347;BME280;41218;55.700;38.270;2023-02-02T23:08:43;99178.06;;;-0.95;70.51
55347;BME280;41218;55.700;38.270;2023-02-02T23:13:43;99202.25;;;-0.85;70.63
55347;BME280;41218;55.700;38.270;2023-02-02T23:18:44;99191.03;;;-0.92;70.52
55347;BME280;41218;55.700;38.270;2023-02-02T23:23:44;99188.00;;;-0.91;70.88
55347;BME280;41218;55.700;38.270;2023-02-02T23:28:45;99193.50;;;-0.82;70.87
55347;BME280;41218;55.700;38.270;2023-02-02T23:33:45;99191.56;;;-0.82;70.50
55347;BME280;41218;55.700;38.270;2023-02-02T23:38:46;99190.28;;;-0.84;70.91
55347;BME280;41218;55.700;38.270;2023-02-02T23:43:46;99173.31;;;-0.90;70.64
55347;BME280;41218;55.700;38.270;2023-02-02T23:48:49;99178.13;;;-0.87;70.60
55347;BME280;41218;55.700;38.270;2023-02-02T23:53:51;99191.28;;;-0.80;70.47
55347;BME280;41218;55.700;38.270;2023-02-02T23:58:51;99189.97;;;-0.83;70.71
